createdAt,value
2022-12-08T00:00:40.828Z,7.90
2022-12-08T00:01:40.813Z,7.00
2022-12-08T00:02:40.976Z,8.80
2022-12-08T00:03:40.927Z,8.30
2022-12-08T00:04:40.892Z,9.10
2022-12-08T00:05:40.793Z,9.40
2022-12-08T00:06:40.856Z,7.80
2022-12-08T00:07:40.835Z,8.80
2022-12-08T00:08:40.772Z,7.90
2022-12-08T00:09:40.713Z,8.90
2022-12-08T00:10:48.878Z,9.60
2022-12-08T00:11:42.725Z,8.10
2022-12-08T00:12:40.719Z,7.90
2022-12-08T00:13:40.727Z,7.30
2022-12-08T00:14:40.678Z,7.00
2022-12-08T00:15:40.628Z,7.90
2022-12-08T00:16:40.708Z,9.10
2022-12-08T00:17:40.672Z,9.10
2022-12-08T00:18:41.017Z,9.10
2022-12-08T00:19:40.638Z,9.00
2022-12-08T00:20:40.689Z,7.80
2022-12-08T00:21:40.572Z,7.20
2022-12-08T00:22:40.589Z,8.20
2022-12-08T00:23:40.589Z,8.70
2022-12-08T00:24:40.551Z,8.80
2022-12-08T00:25:40.543Z,9.60
2022-12-08T00:26:40.553Z,8.40
2022-12-08T00:27:41.226Z,8.80
2022-12-08T00:28:40.528Z,8.50
2022-12-08T00:29:40.573Z,8.00
2022-12-08T00:30:40.572Z,8.30
2022-12-08T00:31:40.618Z,9.00
2022-12-08T00:32:40.548Z,9.10
2022-12-08T00:33:40.525Z,9.00
2022-12-08T00:34:40.547Z,7.50
2022-12-08T00:35:43.233Z,9.50
2022-12-08T00:36:41.510Z,8.40
2022-12-08T00:37:40.436Z,7.50
2022-12-08T00:38:40.499Z,8.40
2022-12-08T00:39:41.366Z,9.10
2022-12-08T00:40:40.412Z,7.40
2022-12-08T00:41:40.414Z,7.90
2022-12-08T00:42:40.372Z,9.00
2022-12-08T00:43:40.565Z,7.60
2022-12-08T00:44:40.455Z,8.80
2022-12-08T00:45:40.480Z,11.90
2022-12-08T00:46:40.446Z,8.90
2022-12-08T00:47:40.345Z,9.10
2022-12-08T00:48:40.516Z,6.80
2022-12-08T00:49:40.336Z,6.70
2022-12-08T00:50:40.385Z,9.20
2022-12-08T00:51:40.315Z,7.80
2022-12-08T00:52:40.356Z,9.30
2022-12-08T00:53:40.282Z,7.10
2022-12-08T00:54:40.322Z,7.60
2022-12-08T00:55:41.035Z,7.10
2022-12-08T00:56:40.258Z,8.00
2022-12-08T00:57:40.273Z,8.60
2022-12-08T00:58:40.262Z,7.80
2022-12-08T00:59:40.254Z,8.70
2022-12-08T01:00:40.281Z,7.70
2022-12-08T01:01:40.286Z,7.10
2022-12-08T01:02:40.886Z,7.80
2022-12-08T01:03:40.237Z,7.50
2022-12-08T01:04:40.244Z,8.10
2022-12-08T01:05:40.203Z,6.20
2022-12-08T01:06:40.205Z,7.20
2022-12-08T01:07:40.195Z,7.10
2022-12-08T01:08:40.169Z,7.10
2022-12-08T01:09:40.985Z,6.80
2022-12-08T01:10:40.146Z,6.20
2022-12-08T01:11:40.125Z,8.70
2022-12-08T01:12:40.117Z,6.30
2022-12-08T01:13:40.141Z,6.80
2022-12-08T01:14:40.110Z,8.50
2022-12-08T01:15:40.056Z,4.90
2022-12-08T01:16:40.410Z,6.20
2022-12-08T01:17:40.045Z,8.30
2022-12-08T01:18:40.093Z,7.70
2022-12-08T01:19:40.062Z,7.70
2022-12-08T01:20:40.030Z,7.30
2022-12-08T01:21:40.048Z,7.60
2022-12-08T01:22:39.995Z,7.80
2022-12-08T01:23:40.905Z,7.50
2022-12-08T01:24:40.034Z,9.90
2022-12-08T01:25:40.000Z,7.20
2022-12-08T01:26:39.976Z,6.70
2022-12-08T01:27:40.195Z,7.50
2022-12-08T01:28:40.025Z,7.60
2022-12-08T01:29:39.983Z,8.20
2022-12-08T01:30:40.056Z,8.70
2022-12-08T01:31:39.948Z,7.20
2022-12-08T01:32:39.916Z,8.30
2022-12-08T01:33:39.953Z,7.40
2022-12-08T01:34:39.982Z,7.50
2022-12-08T01:35:39.907Z,8.30
2022-12-08T01:36:39.892Z,7.90
2022-12-08T01:37:39.858Z,8.40
2022-12-08T01:38:39.896Z,8.70
2022-12-08T01:39:40.000Z,7.60
2022-12-08T01:40:39.837Z,7.40
2022-12-08T01:41:39.858Z,9.90
2022-12-08T01:42:39.825Z,8.10
2022-12-08T01:43:39.822Z,8.20
2022-12-08T01:44:39.821Z,8.50
2022-12-08T01:45:39.793Z,7.10
2022-12-08T01:46:39.970Z,8.20
2022-12-08T01:47:39.793Z,7.90
2022-12-08T01:48:39.791Z,9.30
2022-12-08T01:49:39.755Z,8.00
2022-12-08T01:50:39.724Z,8.80
2022-12-08T01:51:39.718Z,7.80
2022-12-08T01:52:39.717Z,8.10
2022-12-08T01:53:40.365Z,7.80
2022-12-08T01:54:39.699Z,7.30
2022-12-08T01:55:39.755Z,7.40
2022-12-08T01:56:39.713Z,7.70
2022-12-08T01:57:39.693Z,8.00
2022-12-08T01:58:39.668Z,8.00
2022-12-08T01:59:39.694Z,8.20
2022-12-08T02:00:39.615Z,8.10
2022-12-08T02:01:39.800Z,7.90
2022-12-08T02:02:39.776Z,7.70
2022-12-08T02:03:39.615Z,7.50
2022-12-08T02:04:40.236Z,8.10
2022-12-08T02:05:39.635Z,7.10
2022-12-08T02:06:39.560Z,8.80
2022-12-08T02:07:39.756Z,6.90
2022-12-08T02:08:39.552Z,7.10
2022-12-08T02:09:39.595Z,8.10
2022-12-08T02:10:39.547Z,6.40
2022-12-08T02:11:39.619Z,8.60
2022-12-08T02:12:39.518Z,8.50
2022-12-08T02:13:39.512Z,8.50
2022-12-08T02:14:40.308Z,5.70
2022-12-08T02:15:39.551Z,7.00
2022-12-08T02:16:39.520Z,8.90
2022-12-08T02:17:39.495Z,6.90
2022-12-08T02:18:39.534Z,8.40
2022-12-08T02:19:39.464Z,6.40
2022-12-08T02:20:39.422Z,8.00
2022-12-08T02:21:40.384Z,7.20
2022-12-08T02:22:39.455Z,8.70
2022-12-08T02:23:39.458Z,7.60
2022-12-08T02:24:39.417Z,6.40
2022-12-08T02:25:39.461Z,7.90
2022-12-08T02:26:39.398Z,9.20
2022-12-08T02:27:39.429Z,8.40
2022-12-08T02:28:40.369Z,7.30
2022-12-08T02:29:39.374Z,8.40
2022-12-08T02:30:39.346Z,8.40
2022-12-08T02:31:39.377Z,8.70
2022-12-08T02:32:39.428Z,7.20
2022-12-08T02:33:39.298Z,6.80
2022-12-08T02:34:39.317Z,8.10
2022-12-08T02:35:39.313Z,8.10
2022-12-08T02:36:39.386Z,6.30
2022-12-08T02:37:39.277Z,11.00
2022-12-08T02:38:39.290Z,6.90
2022-12-08T02:39:39.329Z,9.00
2022-12-08T02:40:39.281Z,6.70
2022-12-08T02:41:39.258Z,7.60
2022-12-08T02:42:39.221Z,7.20
2022-12-08T02:43:39.218Z,6.90
2022-12-08T02:44:39.859Z,9.20
2022-12-08T02:45:39.178Z,8.40
2022-12-08T02:46:39.781Z,9.50
2022-12-08T02:47:39.203Z,11.40
2022-12-08T02:48:39.346Z,7.50
2022-12-08T02:49:39.198Z,6.00
2022-12-08T02:50:39.159Z,7.90
2022-12-08T02:51:39.298Z,6.80
2022-12-08T02:52:39.133Z,9.20
2022-12-08T02:53:39.153Z,10.10
2022-12-08T02:54:39.124Z,8.80
2022-12-08T02:55:39.259Z,7.10
2022-12-08T02:56:39.066Z,7.90
2022-12-08T02:57:39.075Z,7.10
2022-12-08T02:58:39.128Z,9.60
2022-12-08T02:59:39.087Z,7.60
2022-12-08T03:00:39.198Z,9.70
2022-12-08T03:01:39.114Z,8.70
2022-12-08T03:02:39.220Z,7.60
2022-12-08T03:03:38.986Z,10.30
2022-12-08T03:04:39.036Z,7.00
2022-12-08T03:05:39.037Z,8.00
2022-12-08T03:06:39.037Z,8.60
2022-12-08T03:07:39.068Z,7.30
2022-12-08T03:08:38.982Z,8.80
2022-12-08T03:09:39.000Z,7.50
2022-12-08T03:10:39.940Z,8.20
2022-12-08T03:11:39.014Z,9.10
2022-12-08T03:12:38.929Z,9.90
2022-12-08T03:13:38.922Z,8.50
2022-12-08T03:14:39.038Z,6.60
2022-12-08T03:15:38.994Z,7.70
2022-12-08T03:16:39.006Z,8.60
2022-12-08T03:17:38.941Z,7.10
2022-12-08T03:18:38.888Z,6.20
2022-12-08T03:19:38.923Z,7.30
2022-12-08T03:20:38.865Z,9.30
2022-12-08T03:21:40.372Z,8.60
2022-12-08T03:22:38.856Z,8.00
2022-12-08T03:23:38.834Z,8.80
2022-12-08T03:24:38.911Z,8.10
2022-12-08T03:25:38.872Z,8.10
2022-12-08T03:26:38.805Z,8.10
2022-12-08T03:27:38.765Z,9.50
2022-12-08T03:28:38.770Z,9.40
2022-12-08T03:29:38.781Z,8.70
2022-12-08T03:30:38.876Z,9.10
2022-12-08T03:31:38.798Z,11.30
2022-12-08T03:45:49.487Z,3.70
2022-12-08T03:46:49.479Z,8.90
2022-12-08T03:47:49.460Z,8.10
2022-12-08T03:48:49.456Z,8.80
2022-12-08T03:49:49.633Z,8.40
2022-12-08T03:50:49.432Z,10.70
2022-12-08T03:51:49.419Z,8.90
2022-12-08T03:52:49.417Z,10.60
2022-12-08T03:53:49.400Z,10.30
2022-12-08T03:54:49.464Z,8.60
2022-12-08T03:55:49.404Z,10.00
2022-12-08T03:56:49.425Z,9.10
2022-12-08T03:57:49.357Z,8.70
2022-12-08T03:58:50.491Z,8.60
2022-12-08T03:59:50.514Z,8.20
2022-12-08T04:00:50.521Z,9.40
2022-12-08T04:01:50.568Z,9.30
2022-12-08T04:02:50.534Z,11.30
2022-12-08T04:03:50.515Z,9.50
2022-12-08T04:04:50.457Z,9.60
2022-12-08T04:05:50.552Z,8.90
2022-12-08T04:06:50.443Z,8.40
2022-12-08T04:07:50.442Z,9.90
2022-12-08T04:08:50.422Z,7.40
2022-12-08T04:09:50.452Z,9.30
2022-12-08T04:10:50.393Z,9.60
2022-12-08T04:11:50.353Z,10.30
2022-12-08T04:12:50.460Z,8.90
2022-12-08T04:13:50.370Z,9.30
2022-12-08T04:14:50.395Z,8.90
2022-12-08T04:15:50.403Z,7.90
2022-12-08T04:16:51.328Z,9.60
2022-12-08T04:17:51.147Z,8.00
2022-12-08T04:18:50.308Z,9.40
2022-12-08T04:19:50.388Z,9.50
2022-12-08T04:20:50.299Z,8.70
2022-12-08T04:21:50.353Z,8.20
2022-12-08T04:22:50.266Z,9.40
2022-12-08T04:23:50.265Z,9.70
2022-12-08T04:24:50.730Z,10.70
2022-12-08T04:25:50.238Z,9.30
2022-12-08T04:26:50.246Z,9.50
2022-12-08T04:27:50.204Z,9.10
2022-12-08T04:28:50.243Z,10.30
2022-12-08T04:29:50.218Z,10.80
2022-12-08T04:30:50.187Z,11.70
2022-12-08T04:31:50.211Z,8.30
2022-12-08T04:32:50.190Z,9.80
2022-12-08T04:33:50.198Z,9.30
2022-12-08T04:34:50.169Z,10.20
2022-12-08T04:35:51.076Z,8.90
2022-12-08T04:36:50.149Z,10.70
2022-12-08T04:37:50.111Z,11.40
2022-12-08T04:38:50.122Z,9.10
2022-12-08T04:39:50.099Z,9.60
2022-12-08T04:40:50.125Z,10.20
2022-12-08T04:41:50.082Z,11.30
2022-12-08T04:42:50.097Z,9.70
2022-12-08T04:43:50.068Z,10.90
2022-12-08T04:44:50.117Z,10.10
2022-12-08T04:45:50.039Z,10.40
2022-12-08T04:46:50.085Z,12.00
2022-12-08T04:47:50.047Z,9.90
2022-12-08T04:48:50.035Z,12.10
2022-12-08T04:49:50.022Z,11.30
2022-12-08T04:50:50.006Z,10.30
2022-12-08T04:51:49.967Z,13.30
2022-12-08T04:52:49.975Z,10.50
2022-12-08T04:53:49.962Z,9.90
2022-12-08T04:54:49.969Z,11.40
2022-12-08T04:55:49.925Z,12.30
2022-12-08T04:56:49.948Z,10.60
2022-12-08T04:57:49.911Z,12.50
2022-12-08T04:58:49.943Z,11.00
2022-12-08T04:59:49.925Z,9.70
2022-12-08T05:00:49.912Z,10.10
2022-12-08T05:01:50.077Z,12.10
2022-12-08T05:02:49.936Z,11.60
2022-12-08T05:03:49.918Z,11.20
2022-12-08T05:04:49.863Z,10.70
2022-12-08T05:05:49.881Z,10.30
2022-12-08T05:06:49.842Z,10.10
2022-12-08T05:07:49.934Z,10.10
2022-12-08T05:08:49.903Z,11.20
2022-12-08T05:09:49.839Z,12.00
2022-12-08T05:10:49.825Z,10.60
2022-12-08T05:11:49.807Z,9.70
2022-12-08T05:12:49.837Z,9.20
2022-12-08T05:13:49.782Z,10.70
2022-12-08T05:14:49.824Z,10.50
2022-12-08T05:15:49.853Z,10.40
2022-12-08T05:16:49.839Z,11.60
2022-12-08T05:17:49.766Z,9.40
2022-12-08T05:18:49.727Z,10.10
2022-12-08T05:19:49.918Z,11.30
2022-12-08T05:20:49.696Z,9.90
2022-12-08T05:21:49.724Z,11.00
2022-12-08T05:22:49.697Z,10.80
2022-12-08T05:23:49.697Z,10.00
2022-12-08T05:24:49.680Z,11.50
2022-12-08T05:25:49.678Z,12.10
2022-12-08T05:26:49.710Z,13.00
2022-12-08T05:27:50.639Z,9.90
2022-12-08T05:28:49.625Z,10.30
2022-12-08T05:29:49.634Z,12.80
2022-12-08T05:30:49.628Z,9.20
2022-12-08T05:31:49.866Z,13.10
2022-12-08T05:32:49.626Z,11.80
2022-12-08T05:33:49.580Z,10.10
2022-12-08T05:34:49.614Z,12.40
2022-12-08T05:35:49.574Z,12.50
2022-12-08T05:36:49.540Z,12.00
2022-12-08T05:37:49.529Z,11.00
2022-12-08T05:38:50.231Z,11.80
2022-12-08T05:39:49.525Z,9.60
2022-12-08T05:40:49.484Z,11.40
2022-12-08T05:41:49.489Z,11.30
2022-12-08T05:42:49.464Z,11.20
2022-12-08T05:43:49.471Z,14.70
2022-12-08T05:44:49.487Z,10.90
2022-12-08T05:45:50.190Z,11.40
2022-12-08T05:46:49.435Z,9.20
2022-12-08T05:47:49.516Z,12.40
2022-12-08T05:48:49.417Z,11.40
2022-12-08T05:49:49.427Z,9.30
2022-12-08T05:50:49.430Z,9.80
2022-12-08T05:51:49.409Z,10.60
2022-12-08T05:52:49.373Z,9.80
2022-12-08T05:53:49.374Z,10.70
2022-12-08T05:54:49.448Z,9.70
2022-12-08T05:55:49.367Z,10.50
2022-12-08T05:56:49.396Z,10.00
2022-12-08T05:57:49.345Z,10.40
2022-12-08T05:58:49.330Z,11.30
2022-12-08T05:59:49.406Z,9.60
2022-12-08T06:00:49.319Z,10.90
2022-12-08T06:01:49.410Z,9.00
2022-12-08T06:02:49.342Z,10.10
2022-12-08T06:03:49.295Z,10.80
2022-12-08T06:04:49.279Z,9.60
2022-12-08T06:05:49.280Z,9.70
2022-12-08T06:06:50.215Z,10.60
2022-12-08T06:07:49.301Z,9.60
2022-12-08T06:08:49.233Z,8.80
2022-12-08T06:09:49.305Z,10.80
2022-12-08T06:10:49.283Z,10.40
2022-12-08T06:11:49.238Z,7.40
2022-12-08T06:12:49.221Z,10.10
2022-12-08T06:13:49.189Z,9.90
2022-12-08T06:14:49.192Z,13.10
2022-12-08T06:15:49.248Z,10.80
2022-12-08T06:16:49.192Z,9.20
2022-12-08T06:17:49.139Z,7.70
2022-12-08T06:18:49.131Z,9.60
2022-12-08T06:19:49.314Z,8.60
2022-12-08T06:20:49.131Z,12.50
2022-12-08T06:21:49.101Z,8.90
2022-12-08T06:22:49.658Z,7.30
2022-12-08T06:23:49.075Z,9.00
2022-12-08T06:24:49.108Z,9.10
2022-12-08T06:25:49.074Z,8.70
2022-12-08T06:26:49.057Z,9.80
2022-12-08T06:27:49.071Z,9.90
2022-12-08T06:28:49.104Z,7.60
2022-12-08T06:29:49.641Z,9.10
2022-12-08T06:30:49.091Z,8.80
2022-12-08T06:31:50.165Z,8.40
2022-12-08T06:32:49.081Z,9.50
2022-12-08T06:33:49.079Z,7.10
2022-12-08T06:34:48.997Z,7.30
2022-12-08T06:35:49.040Z,7.40
2022-12-08T06:36:49.061Z,8.70
2022-12-08T06:37:48.970Z,7.60
2022-12-08T06:38:48.940Z,7.10
2022-12-08T06:39:48.945Z,8.20
2022-12-08T06:40:48.942Z,7.30
2022-12-08T06:41:48.910Z,9.20
2022-12-08T06:42:48.897Z,7.10
2022-12-08T06:43:48.939Z,9.70
2022-12-08T06:44:48.890Z,9.20
2022-12-08T06:45:49.338Z,7.80
2022-12-08T06:46:49.053Z,7.40
2022-12-08T06:47:48.846Z,7.60
2022-12-08T06:48:48.891Z,8.50
2022-12-08T06:49:48.857Z,9.10
2022-12-08T06:50:48.864Z,8.60
2022-12-08T06:51:48.811Z,8.30
2022-12-08T06:52:59.543Z,6.80
2022-12-08T06:53:50.835Z,9.20
2022-12-08T06:54:48.823Z,7.20
2022-12-08T06:55:59.192Z,7.90
2022-12-08T06:56:50.776Z,7.40
2022-12-08T06:57:51.226Z,6.90
2022-12-08T06:58:52.847Z,7.30
2022-12-08T06:59:49.748Z,6.70
2022-12-08T07:00:48.797Z,7.60
2022-12-08T07:01:48.955Z,8.10
2022-12-08T07:02:48.805Z,5.70
2022-12-08T07:03:48.754Z,6.80
2022-12-08T07:04:48.697Z,6.10
2022-12-08T07:05:48.723Z,7.20
2022-12-08T07:06:48.706Z,6.40
2022-12-08T07:07:48.764Z,6.70
2022-12-08T07:08:48.732Z,5.60
2022-12-08T07:09:48.685Z,6.40
2022-12-08T07:10:48.703Z,8.00
2022-12-08T07:11:48.630Z,5.50
2022-12-08T07:12:48.611Z,8.30
2022-12-08T07:13:48.690Z,9.00
2022-12-08T07:14:48.596Z,9.00
2022-12-08T07:15:48.671Z,6.70
2022-12-08T07:16:48.612Z,7.10
2022-12-08T07:17:48.567Z,8.30
2022-12-08T07:18:48.563Z,7.50
2022-12-08T07:19:48.559Z,7.70
2022-12-08T07:20:48.606Z,7.20
2022-12-08T07:21:48.543Z,7.20
2022-12-08T07:22:48.561Z,7.70
2022-12-08T07:23:52.695Z,6.40
2022-12-08T07:24:50.573Z,7.10
2022-12-08T07:25:48.522Z,9.90
2022-12-08T07:26:48.493Z,6.90
2022-12-08T07:27:48.493Z,7.50
2022-12-08T07:28:48.502Z,7.60
2022-12-08T07:29:48.450Z,7.50
2022-12-08T07:30:48.611Z,7.70
2022-12-08T07:31:49.072Z,7.60
2022-12-08T07:32:48.447Z,8.30
2022-12-08T07:33:48.419Z,6.10
2022-12-08T07:34:48.425Z,8.30
2022-12-08T07:35:49.388Z,6.90
2022-12-08T07:36:49.383Z,8.10
2022-12-08T07:37:48.406Z,6.90
2022-12-08T07:38:48.404Z,8.30
2022-12-08T07:39:48.367Z,7.30
2022-12-08T07:40:48.394Z,7.50
2022-12-08T07:41:48.354Z,5.50
2022-12-08T07:42:48.343Z,8.50
2022-12-08T07:43:48.407Z,6.90
2022-12-08T07:44:48.317Z,6.50
2022-12-08T07:45:48.412Z,7.90
2022-12-08T07:46:48.319Z,7.50
2022-12-08T07:47:48.318Z,6.90
2022-12-08T07:48:48.263Z,6.50
2022-12-08T07:49:48.284Z,6.00
2022-12-08T07:50:49.143Z,6.80
2022-12-08T07:51:48.241Z,7.50
2022-12-08T07:52:48.307Z,7.00
2022-12-08T07:53:53.390Z,7.30
2022-12-08T07:54:50.232Z,8.60
2022-12-08T07:55:48.214Z,6.70
2022-12-08T07:56:48.239Z,6.60
2022-12-08T07:57:49.227Z,5.90
2022-12-08T07:58:48.177Z,6.40
2022-12-08T07:59:48.276Z,6.20
2022-12-08T08:00:48.216Z,8.10
2022-12-08T08:02:05.095Z,7.40
2022-12-08T08:02:50.198Z,6.20
2022-12-08T08:03:48.158Z,5.80
2022-12-08T08:04:48.233Z,8.10
2022-12-08T08:05:48.160Z,5.30
2022-12-08T08:06:49.035Z,6.80
2022-12-08T08:07:48.135Z,4.60
2022-12-08T08:08:48.123Z,6.20
2022-12-08T08:09:48.091Z,6.30
2022-12-08T08:10:48.098Z,6.00
2022-12-08T08:12:07.204Z,6.70
2022-12-08T08:12:50.581Z,14.30
2022-12-08T08:13:48.048Z,6.70
2022-12-08T08:14:48.012Z,5.70
2022-12-08T08:15:48.139Z,7.20
2022-12-08T08:16:48.110Z,5.50
2022-12-08T08:17:47.986Z,5.60
2022-12-08T08:18:48.054Z,12.00
2022-12-08T08:19:47.967Z,16.30
2022-12-08T08:20:49.153Z,13.10
2022-12-08T08:21:47.977Z,8.70
2022-12-08T08:22:48.111Z,29.80
2022-12-08T08:23:47.973Z,31.70
2022-12-08T08:24:47.953Z,35.50
2022-12-08T08:25:48.107Z,27.60
2022-12-08T08:26:47.925Z,45.10
2022-12-08T08:27:47.920Z,63.70
2022-12-08T08:28:47.904Z,67.80
2022-12-08T08:29:47.896Z,56.00
2022-12-08T08:30:47.965Z,45.90
2022-12-08T08:31:47.848Z,40.30
2022-12-08T08:32:47.898Z,28.20
2022-12-08T08:33:47.851Z,22.00
2022-12-08T08:34:47.921Z,25.20
2022-12-08T08:35:47.845Z,17.80
2022-12-08T08:36:48.629Z,27.20
2022-12-08T08:37:49.431Z,28.20
2022-12-08T08:38:48.822Z,10.60
2022-12-08T08:39:47.774Z,24.80
2022-12-08T08:40:47.793Z,28.40
2022-12-08T08:41:47.978Z,10.50
2022-12-08T08:42:47.763Z,7.70
2022-12-08T08:43:47.804Z,8.30
2022-12-08T08:44:47.754Z,8.00
2022-12-08T08:45:47.781Z,7.20
2022-12-08T08:46:47.842Z,6.50
2022-12-08T08:47:47.763Z,4.80
2022-12-08T08:48:48.549Z,5.50
2022-12-08T08:49:47.710Z,6.40
2022-12-08T08:50:47.752Z,6.50
2022-12-08T08:51:47.684Z,4.30
2022-12-08T08:52:47.653Z,6.80
2022-12-08T08:53:47.685Z,5.90
2022-12-08T08:54:47.672Z,6.80
2022-12-08T08:55:47.795Z,7.10
2022-12-08T08:56:47.625Z,4.40
2022-12-08T08:57:47.628Z,4.70
2022-12-08T08:58:48.354Z,5.00
2022-12-08T08:59:47.673Z,5.50
2022-12-08T09:00:48.247Z,6.20
2022-12-08T09:01:47.682Z,5.90
2022-12-08T09:02:47.600Z,5.30
2022-12-08T09:03:47.651Z,4.60
2022-12-08T09:04:47.634Z,5.50
2022-12-08T09:05:47.633Z,4.80
2022-12-08T09:06:47.551Z,4.80
2022-12-08T09:07:47.578Z,4.80
2022-12-08T09:08:48.496Z,5.10
2022-12-08T09:09:47.556Z,4.70
2022-12-08T09:10:47.512Z,5.20
2022-12-08T09:11:47.571Z,6.00
2022-12-08T09:12:47.495Z,7.60
2022-12-08T09:13:47.499Z,4.00
2022-12-08T09:14:48.272Z,4.70
2022-12-08T09:15:47.513Z,4.30
2022-12-08T09:16:47.639Z,6.40
2022-12-08T09:17:47.507Z,4.60
2022-12-08T09:18:47.457Z,5.10
2022-12-08T09:19:47.469Z,5.70
2022-12-08T09:20:47.487Z,4.30
2022-12-08T09:21:47.480Z,4.60
2022-12-08T09:22:47.398Z,4.70
2022-12-08T09:23:47.390Z,5.50
2022-12-08T09:24:47.373Z,4.00
2022-12-08T09:25:47.390Z,3.40
2022-12-08T09:26:47.423Z,4.20
2022-12-08T09:27:47.380Z,3.90
2022-12-08T09:28:47.438Z,5.40
2022-12-08T09:29:47.390Z,5.90
2022-12-08T09:30:47.391Z,5.60
2022-12-08T09:31:47.438Z,4.50
2022-12-08T09:32:47.317Z,4.70
2022-12-08T09:33:47.303Z,5.10
2022-12-08T09:34:51.893Z,4.00
2022-12-08T09:35:49.274Z,4.30
2022-12-08T09:36:47.250Z,4.10
2022-12-08T09:37:47.344Z,8.60
2022-12-08T09:38:47.337Z,7.00
2022-12-08T09:39:47.238Z,7.10
2022-12-08T09:40:47.265Z,6.30
2022-12-08T09:41:48.557Z,5.40
2022-12-08T09:42:48.239Z,5.20
2022-12-08T09:43:47.269Z,5.40
2022-12-08T09:44:47.257Z,5.10
2022-12-08T09:45:47.239Z,4.80
2022-12-08T09:46:47.294Z,6.20
2022-12-08T09:47:47.243Z,4.90
2022-12-08T09:48:47.166Z,5.40
2022-12-08T09:49:48.148Z,5.40
2022-12-08T09:50:47.137Z,4.10
2022-12-08T09:51:47.169Z,4.90
2022-12-08T09:52:48.121Z,3.40
2022-12-08T09:53:47.124Z,4.70
2022-12-08T09:54:47.192Z,4.00
2022-12-08T09:55:47.092Z,3.60
2022-12-08T09:56:47.104Z,4.50
2022-12-08T09:57:50.448Z,3.50
2022-12-08T09:58:48.035Z,4.90
2022-12-08T09:59:47.028Z,4.80
2022-12-08T10:00:47.093Z,4.50
2022-12-08T10:01:47.697Z,5.30
2022-12-08T10:02:47.061Z,6.40
2022-12-08T10:03:46.991Z,4.40
2022-12-08T10:04:47.117Z,3.90
2022-12-08T10:05:46.984Z,4.60
2022-12-08T10:06:46.999Z,7.30
2022-12-08T10:07:48.026Z,5.60
2022-12-08T10:08:47.636Z,4.00
2022-12-08T10:09:46.985Z,6.00
2022-12-08T10:10:46.949Z,3.60
2022-12-08T10:11:47.009Z,6.20
2022-12-08T10:12:46.930Z,4.90
2022-12-08T10:13:46.941Z,6.50
2022-12-08T10:14:46.897Z,5.80
2022-12-08T10:15:46.996Z,5.30
2022-12-08T10:16:46.910Z,4.70
2022-12-08T10:17:46.948Z,5.80
2022-12-08T10:18:46.905Z,6.90
2022-12-08T10:19:47.016Z,4.30
2022-12-08T10:20:46.809Z,4.60
2022-12-08T10:21:46.835Z,6.10
2022-12-08T10:22:46.856Z,5.40
2022-12-08T10:23:46.835Z,4.70
2022-12-08T10:24:46.941Z,4.00
2022-12-08T10:25:46.778Z,4.60
2022-12-08T10:26:46.803Z,3.30
2022-12-08T10:27:46.812Z,5.40
2022-12-08T10:28:46.755Z,5.40
2022-12-08T10:29:46.747Z,4.60
2022-12-08T10:30:46.752Z,3.00
2022-12-08T10:31:46.916Z,4.10
2022-12-08T10:32:46.726Z,3.50
2022-12-08T10:33:46.682Z,3.70
2022-12-08T10:34:46.786Z,4.40
2022-12-08T10:35:46.692Z,3.70
2022-12-08T10:36:47.676Z,2.50
2022-12-08T10:37:46.682Z,2.90
2022-12-08T10:38:47.684Z,3.40
2022-12-08T10:39:46.757Z,3.70
2022-12-08T10:40:46.702Z,2.40
2022-12-08T10:41:46.666Z,2.70
2022-12-08T10:42:46.634Z,3.00
2022-12-08T10:43:46.685Z,4.60
2022-12-08T10:44:46.657Z,4.40
2022-12-08T10:45:46.614Z,3.90
2022-12-08T10:46:46.661Z,3.30
2022-12-08T10:47:49.826Z,3.90
2022-12-08T10:48:48.547Z,2.80
2022-12-08T10:49:46.581Z,3.80
2022-12-08T10:50:46.611Z,3.00
2022-12-08T10:51:46.535Z,2.50
2022-12-08T10:52:46.516Z,2.80
2022-12-08T10:53:46.617Z,2.60
2022-12-08T10:54:46.514Z,2.60
2022-12-08T10:55:46.527Z,2.30
2022-12-08T10:56:46.518Z,3.70
2022-12-08T10:57:46.507Z,3.10
2022-12-08T10:58:46.472Z,2.20
2022-12-08T10:59:46.514Z,2.90
2022-12-08T11:00:46.524Z,2.40
2022-12-08T11:01:46.634Z,2.30
2022-12-08T11:02:46.497Z,3.00
2022-12-08T11:03:46.513Z,3.00
2022-12-08T11:04:46.431Z,3.90
2022-12-08T11:05:46.401Z,1.90
2022-12-08T11:06:46.408Z,2.60
2022-12-08T11:07:46.435Z,4.00
2022-12-08T11:08:46.357Z,3.00
2022-12-08T11:09:46.384Z,3.50
2022-12-08T11:10:46.402Z,3.10
2022-12-08T11:11:46.352Z,2.40
2022-12-08T11:12:46.411Z,1.60
2022-12-08T11:13:46.334Z,2.40
2022-12-08T11:14:46.306Z,3.20
2022-12-08T11:15:46.270Z,2.90
2022-12-08T11:16:46.412Z,2.30
2022-12-08T11:17:46.330Z,2.40
2022-12-08T11:18:46.288Z,3.40
2022-12-08T11:19:46.323Z,2.90
2022-12-08T11:20:46.263Z,3.40
2022-12-08T11:21:46.278Z,2.90
2022-12-08T11:22:46.239Z,2.00
2022-12-08T11:23:46.228Z,2.40
2022-12-08T11:24:46.200Z,1.60
2022-12-08T11:25:46.199Z,3.50
2022-12-08T11:26:46.271Z,2.90
2022-12-08T11:27:46.178Z,1.90
2022-12-08T11:28:46.181Z,2.10
2022-12-08T11:29:46.671Z,1.50
2022-12-08T11:30:46.189Z,1.10
2022-12-08T11:31:46.268Z,1.40
2022-12-08T11:32:46.135Z,2.10
2022-12-08T11:33:46.332Z,2.10
2022-12-08T11:34:46.113Z,1.50
2022-12-08T11:35:46.188Z,2.00
2022-12-08T11:36:47.152Z,2.60
2022-12-08T11:37:46.081Z,2.40
2022-12-08T11:38:46.109Z,1.40
2022-12-08T11:39:46.103Z,1.60
2022-12-08T11:40:46.044Z,1.60
2022-12-08T11:41:46.142Z,1.30
2022-12-08T11:42:46.077Z,1.60
2022-12-08T11:43:46.106Z,1.80
2022-12-08T11:44:46.089Z,1.10
2022-12-08T11:45:46.214Z,1.70
2022-12-08T11:46:45.973Z,1.00
2022-12-08T11:47:47.355Z,1.30
2022-12-08T11:48:45.990Z,1.30
2022-12-08T11:50:46.013Z,1.20
2022-12-08T11:51:45.954Z,1.40
2022-12-08T11:52:45.934Z,0.80
2022-12-08T11:53:45.968Z,1.20
2022-12-08T11:54:45.918Z,1.40
2022-12-08T11:55:49.747Z,1.00
2022-12-08T11:56:46.943Z,0.90
2022-12-08T11:57:45.998Z,0.80
2022-12-08T11:58:45.889Z,0.80
2022-12-08T11:59:45.907Z,0.90
2022-12-08T12:00:45.844Z,1.90
2022-12-08T12:01:45.974Z,0.80
2022-12-08T12:02:45.979Z,1.60
2022-12-08T12:03:45.944Z,1.10
2022-12-08T12:04:46.591Z,1.40
2022-12-08T12:06:12.587Z,0.90
2022-12-08T12:06:54.627Z,1.30
2022-12-08T12:07:48.559Z,1.40
2022-12-08T12:08:45.788Z,0.80
2022-12-08T12:09:45.732Z,0.50
2022-12-08T12:10:45.831Z,1.50
2022-12-08T12:11:45.807Z,0.90
2022-12-08T12:12:45.779Z,0.80
2022-12-08T12:13:45.774Z,1.20
2022-12-08T12:14:45.750Z,1.70
2022-12-08T12:15:45.692Z,1.00
2022-12-08T12:16:45.750Z,1.50
2022-12-08T12:17:45.716Z,1.40
2022-12-08T12:18:45.738Z,1.20
2022-12-08T12:19:45.658Z,0.90
2022-12-08T12:20:45.774Z,0.90
2022-12-08T12:21:45.636Z,1.00
2022-12-08T12:22:45.656Z,0.80
2022-12-08T12:23:45.622Z,1.00
2022-12-08T12:24:45.614Z,0.70
2022-12-08T12:25:45.612Z,1.00
2022-12-08T12:26:45.601Z,1.10
2022-12-08T12:27:45.687Z,1.30
2022-12-08T12:28:45.639Z,0.70
2022-12-08T12:29:47.091Z,0.90
2022-12-08T12:30:45.618Z,0.60
2022-12-08T12:31:45.559Z,0.70
2022-12-08T12:32:45.558Z,0.50
2022-12-08T12:33:45.534Z,0.60
2022-12-08T12:34:45.537Z,0.80
2022-12-08T12:35:45.561Z,2.00
2022-12-08T12:36:45.512Z,0.80
2022-12-08T12:37:46.220Z,0.70
2022-12-08T12:38:45.504Z,1.10
2022-12-08T12:39:45.475Z,1.20
2022-12-08T12:40:45.448Z,0.70
2022-12-08T12:41:45.590Z,0.70
2022-12-08T12:42:45.461Z,0.90
2022-12-08T12:43:45.465Z,0.70
2022-12-08T12:44:45.474Z,0.70
2022-12-08T12:45:46.553Z,0.70
2022-12-08T12:46:45.424Z,0.50
2022-12-08T12:47:46.887Z,0.60
2022-12-08T12:48:45.371Z,0.50
2022-12-08T12:49:45.418Z,0.40
2022-12-08T12:50:45.374Z,0.80
2022-12-08T12:51:45.426Z,1.30
2022-12-08T12:52:45.411Z,1.10
2022-12-08T12:53:46.095Z,0.80
2022-12-08T12:54:45.330Z,1.10
2022-12-08T12:55:45.400Z,1.50
2022-12-08T12:56:45.326Z,0.50
2022-12-08T12:57:45.348Z,1.00
2022-12-08T12:58:45.349Z,0.50
2022-12-08T12:59:47.844Z,0.70
2022-12-08T13:00:45.316Z,0.70
2022-12-08T13:01:45.384Z,0.30
2022-12-08T13:02:45.402Z,0.60
2022-12-08T13:03:45.248Z,0.80
2022-12-08T13:04:45.313Z,0.50
2022-12-08T13:05:45.245Z,0.40
2022-12-08T13:06:45.209Z,0.60
2022-12-08T13:07:45.821Z,0.40
2022-12-08T13:08:45.190Z,0.50
2022-12-08T13:09:45.275Z,0.70
2022-12-08T13:10:45.139Z,0.60
2022-12-08T13:11:47.907Z,0.60
2022-12-08T13:12:46.212Z,0.50
2022-12-08T13:13:45.152Z,0.60
2022-12-08T13:14:46.128Z,0.70
2022-12-08T13:15:45.144Z,1.20
2022-12-08T13:16:45.233Z,1.70
2022-12-08T13:17:45.116Z,0.40
2022-12-08T13:18:45.123Z,0.40
2022-12-08T13:19:51.420Z,0.90
2022-12-08T13:20:47.130Z,1.00
2022-12-08T13:21:45.174Z,0.60
2022-12-08T13:22:45.077Z,1.90
2022-12-08T13:23:45.064Z,0.40
2022-12-08T13:24:45.103Z,0.70
2022-12-08T13:25:45.054Z,0.40
2022-12-08T13:26:45.042Z,1.50
2022-12-08T13:27:45.028Z,0.50
2022-12-08T13:28:45.121Z,0.70